Time;durP1;ratioP1;P1;durP2;ratioP2;P2;SDS_P1;SDS_P2;PMS_P1;PMS_P2;Temp;Humidity;BMP_temperature;BMP_pressure;BME280_temperature;BME280_humidity;BME280_pressure;Samples;Min_cycle;Max_cycle;Signal;HPM_P1;HPM_P2
2022/08/02 00:00:59;;;;;;;0.50;0.40;;;15.10;99.90;;;;;;5031948;28;20564;-77
2022/08/02 00:03:26;;;;;;;0.50;0.40;;;15.20;99.90;;;;;;5031339;28;20964;-78
2022/08/02 00:05:53;;;;;;;0.50;0.40;;;15.10;99.90;;;;;;5032042;28;20460;-79
2022/08/02 00:08:20;;;;;;;0.50;0.40;;;15.10;99.90;;;;;;5031783;28;20561;-78
2022/08/02 00:10:48;;;;;;;0.50;0.40;;;15.00;99.90;;;;;;5032032;28;20481;-76
2022/08/02 00:13:15;;;;;;;0.50;0.40;;;15.00;99.90;;;;;;5031826;28;20524;-78
2022/08/02 00:15:42;;;;;;;0.50;0.40;;;15.00;99.90;;;;;;5031504;28;20473;-78
2022/08/02 00:18:09;;;;;;;0.50;0.40;;;15.00;99.90;;;;;;5032032;28;20444;-78
2022/08/02 00:20:36;;;;;;;0.50;0.40;;;15.00;99.90;;;;;;5031686;28;20907;-78
2022/08/02 00:23:03;;;;;;;0.50;0.40;;;15.00;99.90;;;;;;5031424;28;20863;-78
2022/08/02 00:25:29;;;;;;;0.50;0.40;;;15.00;99.90;;;;;;5031559;28;20663;-78
2022/08/02 00:27:58;;;;;;;0.50;0.40;;;15.00;99.90;;;;;;5031759;28;20474;-79
2022/08/02 00:30:25;;;;;;;0.50;0.40;;;15.00;99.90;;;;;;5031179;28;20534;-78
2022/08/02 00:32:51;;;;;;;0.50;0.40;;;15.00;99.90;;;;;;5031396;28;20533;-79
2022/08/02 00:35:18;;;;;;;0.50;0.40;;;15.10;99.90;;;;;;5031764;28;20543;-78
2022/08/02 00:37:45;;;;;;;0.50;0.40;;;15.10;99.90;;;;;;5031568;28;20551;-79
2022/08/02 00:40:12;;;;;;;0.50;0.40;;;15.10;99.90;;;;;;5031966;28;20532;-79
2022/08/02 00:42:40;;;;;;;0.50;0.40;;;15.10;99.90;;;;;;5031194;28;20533;-78
2022/08/02 00:45:09;;;;;;;0.50;0.40;;;15.20;99.90;;;;;;5031591;28;20532;-78
2022/08/02 00:47:36;;;;;;;0.50;0.40;;;15.20;99.90;;;;;;5031516;28;20897;-78
2022/08/02 00:50:04;;;;;;;0.50;0.40;;;15.20;99.90;;;;;;5031213;28;20875;-79
2022/08/02 00:52:30;;;;;;;0.50;0.40;;;15.20;99.90;;;;;;5030725;28;20438;-78
2022/08/02 00:54:57;;;;;;;0.50;0.40;;;15.10;99.90;;;;;;5031220;28;20533;-78
2022/08/02 00:57:24;;;;;;;0.50;0.40;;;15.20;99.90;;;;;;5031608;28;20544;-78
2022/08/02 00:59:51;;;;;;;0.50;0.40;;;15.20;99.90;;;;;;5031693;28;20521;-78
2022/08/02 01:02:19;;;;;;;0.50;0.40;;;15.20;99.90;;;;;;5031125;28;20525;-79
2022/08/02 01:04:46;;;;;;;0.50;0.40;;;15.10;99.90;;;;;;5031010;28;20480;-78
2022/08/02 01:07:13;;;;;;;0.50;0.40;;;15.10;99.90;;;;;;5030794;28;20560;-78
2022/08/02 01:09:40;;;;;;;0.50;0.40;;;15.20;99.90;;;;;;5031228;28;20445;-78
2022/08/02 01:12:08;;;;;;;0.50;0.40;;;15.20;99.90;;;;;;5030976;28;20528;-78
2022/08/02 01:14:35;;;;;;;0.50;0.40;;;15.10;99.90;;;;;;5030988;28;20547;-77
2022/08/02 01:17:05;;;;;;;0.70;0.70;;;15.10;99.90;;;;;;5031508;28;20458;-79
2022/08/02 01:19:40;;;;;;;0.50;0.40;;;15.10;99.90;;;;;;5031091;28;20499;-77
2022/08/02 01:22:23;;;;;;;0.50;0.40;;;15.10;99.90;;;;;;5030657;28;20445;-78
2022/08/02 01:25:07;;;;;;;0.50;0.40;;;15.10;99.90;;;;;;5031285;28;20472;-78
2022/08/02 01:27:46;;;;;;;0.50;0.40;;;15.00;99.90;;;;;;5030492;28;20481;-78
2022/08/02 01:30:16;;;;;;;0.50;0.40;;;15.00;99.90;;;;;;5030999;28;20424;-78
2022/08/02 01:32:48;;;;;;;0.50;0.40;;;15.00;99.90;;;;;;5031243;28;20543;-78
2022/08/02 01:35:20;;;;;;;0.50;0.40;;;15.00;99.90;;;;;;5030821;28;20826;-78
2022/08/02 01:37:53;;;;;;;0.50;0.40;;;15.00;99.90;;;;;;5030976;28;20548;-79
2022/08/02 01:40:23;;;;;;;0.50;0.40;;;15.00;99.90;;;;;;5031149;28;20425;-78
2022/08/02 01:42:56;;;;;;;0.50;0.40;;;15.10;99.90;;;;;;5034255;28;20521;-78
2022/08/02 01:45:26;;;;;;;0.50;0.40;;;15.10;99.90;;;;;;5034552;28;20513;-78
2022/08/02 01:47:54;;;;;;;1.30;1.23;;;15.10;99.90;;;;;;5034821;28;20566;-77
2022/08/02 01:50:26;;;;;;;0.50;0.40;;;15.20;99.90;;;;;;5033836;28;20540;-78
2022/08/02 01:52:57;;;;;;;0.50;0.40;;;15.20;99.90;;;;;;5033951;28;20512;-78
2022/08/02 01:55:28;;;;;;;0.50;0.40;;;15.10;99.90;;;;;;5034459;28;20429;-78
2022/08/02 01:57:58;;;;;;;0.50;0.40;;;15.10;99.90;;;;;;5034233;28;20504;-78
2022/08/02 02:00:31;;;;;;;0.50;0.40;;;15.00;99.90;;;;;;5034125;28;20525;-78
2022/08/02 02:03:00;;;;;;;0.50;0.40;;;15.00;99.90;;;;;;5033754;28;20960;-78
2022/08/02 02:05:29;;;;;;;0.60;0.60;;;15.00;99.90;;;;;;5033971;28;20548;-78
2022/08/02 02:07:58;;;;;;;0.50;0.40;;;15.00;99.90;;;;;;5034258;28;20564;-78
2022/08/02 02:10:29;;;;;;;0.50;0.40;;;15.10;99.90;;;;;;5034239;28;20476;-78
2022/08/02 02:12:58;;;;;;;0.50;0.40;;;15.10;99.90;;;;;;5033334;28;20488;-76
2022/08/02 02:15:28;;;;;;;0.50;0.40;;;15.00;99.90;;;;;;5034223;28;20852;-78
2022/08/02 02:17:56;;;;;;;0.50;0.40;;;15.00;99.90;;;;;;5034005;28;20438;-78
2022/08/02 02:20:24;;;;;;;0.50;0.50;;;14.90;99.90;;;;;;5033943;28;20450;-77
2022/08/02 02:22:51;;;;;;;0.50;0.40;;;14.80;99.90;;;;;;5033134;28;21042;-78
2022/08/02 02:25:20;;;;;;;0.50;0.40;;;14.80;99.90;;;;;;5034043;28;20549;-78
2022/08/02 02:27:53;;;;;;;0.50;0.40;;;14.80;99.90;;;;;;5033915;28;20496;-77
2022/08/02 02:30:20;;;;;;;0.50;0.40;;;14.80;99.90;;;;;;5035381;28;20431;-79
2022/08/02 02:32:52;;;;;;;0.50;0.40;;;14.70;99.90;;;;;;5034314;28;20442;-78
2022/08/02 02:35:21;;;;;;;0.50;0.40;;;14.70;99.90;;;;;;5033584;28;20458;-77
2022/08/02 02:37:49;;;;;;;0.50;0.40;;;14.60;99.90;;;;;;5034137;28;20892;-78
2022/08/02 02:40:18;;;;;;;0.50;0.40;;;14.60;99.90;;;;;;5033769;28;20529;-79
2022/08/02 02:42:46;;;;;;;0.50;0.40;;;14.50;99.90;;;;;;5032947;28;21030;-77
2022/08/02 02:45:15;;;;;;;0.50;0.40;;;14.50;99.90;;;;;;5033273;28;20440;-76
2022/08/02 02:47:43;;;;;;;0.50;0.40;;;14.50;99.90;;;;;;5033526;28;20520;-78
2022/08/02 02:50:12;;;;;;;0.50;0.40;;;14.40;99.90;;;;;;5032886;28;20529;-78
2022/08/02 02:52:40;;;;;;;0.70;0.70;;;14.40;99.90;;;;;;5032749;28;20438;-74
2022/08/02 02:55:09;;;;;;;0.50;0.40;;;14.50;99.90;;;;;;5034389;28;20459;-80
2022/08/02 02:57:37;;;;;;;0.50;0.40;;;14.50;99.90;;;;;;5033577;28;20456;-77
2022/08/02 03:00:06;;;;;;;0.50;0.40;;;14.40;99.90;;;;;;5033429;28;20525;-78
2022/08/02 03:02:34;;;;;;;0.50;0.40;;;14.40;99.90;;;;;;5033128;28;20882;-77
2022/08/02 03:05:02;;;;;;;0.50;0.40;;;14.40;99.90;;;;;;5032911;28;20837;-77
2022/08/02 03:07:33;;;;;;;0.50;0.40;;;14.30;99.90;;;;;;5033303;28;20487;-78
2022/08/02 03:10:00;;;;;;;0.50;0.40;;;14.30;99.90;;;;;;5033226;28;20439;-78
2022/08/02 03:12:27;;;;;;;0.50;0.43;;;14.40;99.90;;;;;;5033462;28;20869;-79
2022/08/02 03:14:55;;;;;;;0.50;0.40;;;14.40;99.90;;;;;;5033123;28;20959;-76
2022/08/02 03:17:21;;;;;;;0.50;0.40;;;14.40;99.90;;;;;;5033310;28;20462;-78
2022/08/02 03:19:48;;;;;;;0.50;0.40;;;14.30;99.90;;;;;;5032525;28;20560;-77
2022/08/02 03:22:15;;;;;;;0.50;0.40;;;14.30;99.90;;;;;;5032544;28;20438;-77
2022/08/02 03:24:43;;;;;;;0.50;0.40;;;14.20;99.90;;;;;;5033116;28;20477;-74
2022/08/02 03:27:10;;;;;;;0.50;0.40;;;14.20;99.90;;;;;;5033122;28;20473;-80
2022/08/02 03:29:37;;;;;;;0.50;0.40;;;14.20;99.90;;;;;;5034135;28;20478;-77
2022/08/02 03:32:05;;;;;;;0.50;0.40;;;14.20;99.90;;;;;;5033709;28;20451;-78
2022/08/02 03:34:32;;;;;;;0.50;0.40;;;14.30;99.90;;;;;;5033822;28;20848;-77
2022/08/02 03:36:59;;;;;;;0.50;0.40;;;14.40;99.90;;;;;;5032908;28;20461;-78
2022/08/02 03:39:27;;;;;;;0.50;0.40;;;14.40;99.90;;;;;;5033034;28;20482;-77
2022/08/02 03:41:57;;;;;;;0.50;0.40;;;14.40;99.90;;;;;;5032583;28;20516;-77
2022/08/02 03:44:25;;;;;;;0.50;0.40;;;14.40;99.90;;;;;;5033378;28;20468;-78
2022/08/02 03:46:52;;;;;;;0.50;0.40;;;14.40;99.90;;;;;;5032993;28;20532;-78
2022/08/02 03:49:20;;;;;;;0.50;0.40;;;14.30;99.90;;;;;;5032495;28;20480;-79
2022/08/02 03:51:48;;;;;;;0.50;0.40;;;14.40;99.90;;;;;;5032280;28;20450;-76
2022/08/02 03:54:17;;;;;;;0.50;0.40;;;14.30;99.90;;;;;;5032342;28;20874;-77
2022/08/02 03:56:44;;;;;;;0.50;0.40;;;14.40;99.90;;;;;;5031650;28;20552;-77
2022/08/02 03:59:13;;;;;;;0.50;0.40;;;14.50;99.90;;;;;;5031940;28;20439;-77
2022/08/02 04:01:40;;;;;;;0.50;0.40;;;14.60;99.90;;;;;;5031443;28;20473;-78
2022/08/02 04:04:08;;;;;;;0.50;0.40;;;14.60;99.90;;;;;;5031154;28;20484;-77
2022/08/02 04:06:34;;;;;;;0.50;0.40;;;14.60;99.90;;;;;;5031780;28;20458;-78
2022/08/02 04:09:01;;;;;;;0.50;0.40;;;14.70;99.90;;;;;;5032098;28;20560;-77
2022/08/02 04:11:30;;;;;;;0.50;0.40;;;14.70;99.90;;;;;;5031004;28;20525;-76
2022/08/02 04:13:58;;;;;;;0.50;0.40;;;14.70;99.90;;;;;;5031693;28;20441;-77
2022/08/02 04:16:31;;;;;;;0.50;0.40;;;14.80;99.90;;;;;;5031335;28;20541;-76
2022/08/02 04:19:02;;;;;;;0.50;0.40;;;14.80;99.90;;;;;;5031834;28;20460;-77
2022/08/02 04:21:33;;;;;;;0.50;0.40;;;14.90;99.90;;;;;;5031291;28;20505;-77
2022/08/02 04:24:03;;;;;;;0.50;0.40;;;14.90;99.90;;;;;;5031380;28;20443;-77
2022/08/02 04:26:31;;;;;;;0.50;0.40;;;15.00;99.90;;;;;;5031415;28;20901;-78
2022/08/02 04:28:59;;;;;;;0.50;0.40;;;15.10;99.90;;;;;;5031609;28;20509;-76
2022/08/02 04:31:28;;;;;;;0.50;0.40;;;15.20;99.90;;;;;;5031467;28;20536;-77
2022/08/02 04:33:56;;;;;;;0.50;0.40;;;15.30;99.90;;;;;;5031561;28;20541;-76
2022/08/02 04:36:22;;;;;;;0.50;0.40;;;15.40;99.90;;;;;;5030601;28;20817;-77
2022/08/02 04:38:49;;;;;;;0.50;0.40;;;15.40;99.90;;;;;;5031536;28;20434;-76
2022/08/02 04:41:16;;;;;;;0.50;0.40;;;15.50;99.90;;;;;;5031438;28;20907;-78
2022/08/02 04:43:43;;;;;;;0.50;0.40;;;15.60;99.90;;;;;;5031428;28;20478;-77
2022/08/02 04:46:10;;;;;;;0.50;0.40;;;15.70;99.90;;;;;;5031108;28;20552;-77
2022/08/02 04:48:38;;;;;;;1.67;1.13;;;15.80;99.90;;;;;;5030616;28;20920;-77
2022/08/02 04:51:05;;;;;;;0.50;0.40;;;15.90;99.90;;;;;;5031018;28;20525;-77
2022/08/02 04:53:32;;;;;;;0.50;0.40;;;15.90;99.90;;;;;;5031077;28;20445;-76
2022/08/02 04:55:59;;;;;;;0.50;0.40;;;16.00;99.90;;;;;;5031550;28;20549;-76
2022/08/02 04:58:26;;;;;;;1.43;1.33;;;16.10;99.90;;;;;;5031444;28;20544;-78
2022/08/02 05:00:53;;;;;;;0.60;0.60;;;16.10;99.90;;;;;;5031321;28;20521;-77
2022/08/02 05:03:20;;;;;;;0.50;0.40;;;16.20;99.90;;;;;;5030937;28;20450;-77
2022/08/02 05:05:48;;;;;;;0.50;0.40;;;16.20;99.90;;;;;;5031307;28;20463;-77
2022/08/02 05:08:15;;;;;;;0.50;0.40;;;16.20;99.90;;;;;;5031197;28;20470;-77
2022/08/02 05:10:42;;;;;;;0.50;0.40;;;16.30;99.90;;;;;;5031230;28;20688;-77
2022/08/02 05:13:08;;;;;;;0.50;0.40;;;16.40;99.90;;;;;;5031858;28;20549;-78
2022/08/02 05:15:35;;;;;;;0.50;0.40;;;16.40;99.90;;;;;;5031922;28;20446;-77
2022/08/02 05:18:03;;;;;;;0.50;0.40;;;16.50;99.90;;;;;;5035508;28;20533;-77
2022/08/02 05:20:29;;;;;;;0.50;0.40;;;16.60;99.90;;;;;;5035412;28;21129;-79
2022/08/02 05:22:58;;;;;;;0.50;0.40;;;16.70;99.90;;;;;;5035142;28;20473;-77
2022/08/02 05:25:25;;;;;;;0.50;0.40;;;16.70;99.90;;;;;;5035578;28;20444;-79
2022/08/02 05:27:51;;;;;;;0.50;0.40;;;16.90;99.90;;;;;;5035913;28;21061;-79
2022/08/02 05:30:18;;;;;;;0.50;0.40;;;17.00;99.90;;;;;;5035141;28;20473;-78
2022/08/02 05:32:47;;;;;;;0.50;0.40;;;17.20;99.90;;;;;;5034654;28;20537;-78
2022/08/02 05:35:17;;;;;;;0.50;0.40;;;17.40;99.90;;;;;;5034696;28;20943;-76
2022/08/02 05:37:44;;;;;;;0.50;0.30;;;17.60;99.90;;;;;;5035139;28;20521;-78
2022/08/02 05:40:12;;;;;;;0.50;0.37;;;17.80;99.90;;;;;;5034407;28;20436;-78
2022/08/02 05:42:39;;;;;;;0.50;0.30;;;18.00;99.90;;;;;;5034800;28;20450;-78
2022/08/02 05:45:07;;;;;;;0.50;0.40;;;18.10;99.90;;;;;;5034810;28;20480;-78
2022/08/02 05:47:34;;;;;;;0.50;0.40;;;18.30;99.90;;;;;;5034455;28;20472;-75
2022/08/02 05:50:01;;;;;;;0.60;0.50;;;18.40;99.90;;;;;;5035219;28;20576;-78
2022/08/02 05:52:41;;;;;;;0.50;0.30;;;18.60;99.90;;;;;;5034669;28;20886;-77
2022/08/02 05:55:16;;;;;;;0.50;0.30;;;18.70;99.90;;;;;;5034931;28;20421;-78
2022/08/02 05:57:52;;;;;;;0.50;0.30;;;18.90;99.90;;;;;;5034864;28;20472;-78
2022/08/02 06:00:20;;;;;;;0.50;0.40;;;19.00;99.90;;;;;;5034684;28;20449;-78
2022/08/02 06:03:17;;;;;;;0.50;0.40;;;19.20;99.90;;;;;;5034180;28;20537;-78
2022/08/02 06:05:51;;;;;;;0.50;0.40;;;19.40;99.90;;;;;;5034094;28;20521;-79
2022/08/02 06:08:20;;;;;;;0.50;0.30;;;19.60;99.90;;;;;;5034162;28;20819;-78
2022/08/02 06:10:51;;;;;;;0.50;0.40;;;20.20;99.90;;;;;;5034213;28;20534;-76
2022/08/02 06:13:20;;;;;;;0.50;0.40;;;21.30;99.90;;;;;;5033623;28;20480;-78
2022/08/02 06:15:52;;;;;;;0.50;0.30;;;22.60;99.90;;;;;;5034074;28;20438;-79
2022/08/02 06:18:20;;;;;;;0.50;0.40;;;24.00;99.90;;;;;;5034822;28;20923;-78
2022/08/02 06:20:50;;;;;;;0.50;0.40;;;25.20;99.90;;;;;;5035393;28;20521;-79
2022/08/02 06:23:21;;;;;;;0.50;0.30;;;26.70;99.90;;;;;;5034116;28;20418;-79
2022/08/02 06:25:51;;;;;;;0.50;0.30;;;27.80;99.90;;;;;;5034559;28;20465;-79
2022/08/02 06:28:20;;;;;;;0.50;0.30;;;28.60;99.90;;;;;;5034593;28;20442;-79
2022/08/02 06:30:47;;;;;;;0.50;0.40;;;29.50;99.90;;;;;;5034873;28;20527;-79
2022/08/02 06:33:14;;;;;;;0.50;0.30;;;30.20;99.90;;;;;;5034618;28;20446;-79
2022/08/02 06:36:01;;;;;;;0.50;0.30;;;30.40;96.50;;;;;;5034652;28;20505;-79
2022/08/02 06:38:33;;;;;;;0.50;0.30;;;31.10;94.00;;;;;;5034797;28;20464;-79
2022/08/02 06:41:05;;;;;;;0.50;0.40;;;31.60;90.30;;;;;;5034495;28;20876;-80
2022/08/02 06:43:53;;;;;;;0.50;0.30;;;31.90;88.10;;;;;;5033914;28;20422;-80
2022/08/02 06:46:20;;;;;;;0.50;0.30;;;32.00;86.10;;;;;;5034276;28;20541;-79
2022/08/02 06:48:47;;;;;;;0.50;0.30;;;32.00;84.30;;;;;;5034597;28;20561;-79
2022/08/02 06:51:14;;;;;;;0.50;0.30;;;32.00;84.20;;;;;;5034388;28;20548;-78
2022/08/02 06:53:42;;;;;;;0.50;0.30;;;31.70;86.90;;;;;;5034053;28;20576;-77
2022/08/02 06:56:10;;;;;;;0.50;0.30;;;32.30;83.90;;;;;;5034413;28;20489;-77
2022/08/02 06:58:37;;;;;;;0.60;0.50;;;32.30;80.40;;;;;;5033998;28;20458;-76
2022/08/02 07:01:06;;;;;;;0.50;0.47;;;31.10;80.80;;;;;;5032951;28;20443;-79
2022/08/02 07:03:33;;;;;;;1.63;1.53;;;29.90;89.10;;;;;;5032872;28;20446;-79
2022/08/02 07:06:00;;;;;;;1.03;0.70;;;30.50;90.00;;;;;;5033724;28;20458;-80
2022/08/02 07:08:31;;;;;;;1.17;0.73;;;31.50;83.00;;;;;;5033248;28;20492;-78
2022/08/02 07:10:59;;;;;;;1.13;0.97;;;30.70;83.10;;;;;;5032928;28;20422;-78
2022/08/02 07:13:28;;;;;;;0.50;0.40;;;30.30;84.00;;;;;;5033021;28;20434;-79
2022/08/02 07:15:56;;;;;;;7.97;3.23;;;29.50;87.30;;;;;;5032975;28;20505;-79
2022/08/02 07:18:23;;;;;;;3.77;3.47;;;29.30;88.30;;;;;;5032702;28;20544;-80
2022/08/02 07:20:50;;;;;;;1.50;1.40;;;29.00;90.60;;;;;;5032846;28;20460;-78
2022/08/02 07:23:17;;;;;;;1.07;1.07;;;29.30;91.10;;;;;;5032269;28;20569;-79
2022/08/02 07:25:45;;;;;;;0.53;0.47;;;29.90;90.60;;;;;;5032793;28;20518;-79
2022/08/02 07:28:14;;;;;;;0.50;0.30;;;30.70;88.80;;;;;;5033400;28;20500;-78
2022/08/02 07:30:42;;;;;;;0.60;0.40;;;31.30;84.90;;;;;;5032732;28;20579;-78
2022/08/02 07:33:09;;;;;;;0.50;0.40;;;30.50;83.20;;;;;;5032639;28;20538;-79
2022/08/02 07:35:36;;;;;;;0.50;0.30;;;30.50;87.20;;;;;;5032484;28;20529;-79
2022/08/02 07:38:03;;;;;;;2.50;1.63;;;31.30;86.10;;;;;;5032722;28;20466;-79
2022/08/02 07:40:30;;;;;;;0.63;0.40;;;32.20;79.80;;;;;;5032182;28;20580;-79
2022/08/02 07:42:58;;;;;;;0.60;0.60;;;32.70;77.20;;;;;;5032187;28;20536;-79
2022/08/02 07:45:25;;;;;;;0.50;0.40;;;32.80;75.90;;;;;;5032849;28;20442;-79
2022/08/02 07:47:55;;;;;;;0.50;0.30;;;33.00;75.20;;;;;;5032552;28;20519;-79
2022/08/02 07:50:22;;;;;;;0.50;0.50;;;34.00;73.50;;;;;;5033206;28;20474;-79
2022/08/02 07:52:49;;;;;;;0.50;0.30;;;34.70;68.50;;;;;;5032383;28;20466;-78
2022/08/02 07:55:17;;;;;;;0.50;0.40;;;34.40;67.60;;;;;;5032513;28;20470;-78
2022/08/02 07:57:46;;;;;;;0.60;0.40;;;33.60;67.40;;;;;;5032499;28;21009;-79
2022/08/02 08:00:14;;;;;;;0.60;0.40;;;32.80;66.50;;;;;;5032454;28;20473;-79
2022/08/02 08:02:41;;;;;;;0.93;0.70;;;33.00;67.60;;;;;;5032946;28;20442;-76
2022/08/02 08:05:10;;;;;;;2.40;0.80;;;33.40;66.20;;;;;;5032648;28;20538;-78
2022/08/02 08:07:38;;;;;;;0.60;0.50;;;33.60;63.90;;;;;;5031702;28;20460;-78
2022/08/02 08:10:06;;;;;;;0.60;0.60;;;33.00;64.50;;;;;;5031837;28;21069;-78
2022/08/02 08:12:33;;;;;;;0.60;0.50;;;32.80;64.00;;;;;;5032146;28;20804;-78
2022/08/02 08:15:00;;;;;;;0.50;0.30;;;33.50;64.60;;;;;;5032592;28;20481;-78
2022/08/02 08:17:27;;;;;;;0.57;0.40;;;33.70;63.80;;;;;;5032445;28;20902;-79
2022/08/02 08:19:54;;;;;;;0.60;0.40;;;34.40;60.40;;;;;;5032461;28;20935;-79
2022/08/02 08:22:22;;;;;;;0.50;0.30;;;34.70;58.50;;;;;;5031931;28;20457;-80
2022/08/02 08:24:49;;;;;;;1.43;1.33;;;35.30;57.40;;;;;;5032188;28;20888;-79
2022/08/02 08:27:18;;;;;;;0.50;0.30;;;35.20;57.40;;;;;;5031944;28;20471;-79
2022/08/02 08:29:46;;;;;;;0.50;0.30;;;34.90;57.70;;;;;;5032292;28;20500;-79
2022/08/02 08:32:13;;;;;;;0.50;0.30;;;34.90;56.90;;;;;;5031885;28;20959;-79
2022/08/02 08:34:40;;;;;;;1.90;0.90;;;35.40;57.90;;;;;;5032062;28;20434;-79
2022/08/02 08:37:07;;;;;;;1.33;1.03;;;35.10;56.50;;;;;;5031894;28;20505;-79
2022/08/02 08:39:36;;;;;;;0.60;0.50;;;35.00;56.80;;;;;;5031596;28;20568;-79
2022/08/02 08:42:06;;;;;;;0.50;0.40;;;35.30;57.40;;;;;;5031791;28;20473;-79
2022/08/02 08:44:33;;;;;;;0.50;0.30;;;35.40;56.90;;;;;;5031332;28;20820;-79
2022/08/02 08:47:02;;;;;;;0.50;0.33;;;34.10;58.00;;;;;;5031613;28;20494;-79
2022/08/02 08:49:32;;;;;;;0.50;0.40;;;34.10;59.90;;;;;;5031392;28;20556;-78
2022/08/02 08:52:03;;;;;;;0.50;0.30;;;33.40;59.50;;;;;;5035353;28;20450;-79
2022/08/02 08:54:31;;;;;;;0.50;0.30;;;33.90;62.90;;;;;;5035911;28;20477;-78
2022/08/02 08:57:00;;;;;;;0.50;0.40;;;34.40;60.90;;;;;;5036394;28;20553;-78
2022/08/02 08:59:27;;;;;;;0.50;0.50;;;34.70;58.90;;;;;;5035247;28;20540;-79
2022/08/02 09:01:55;;;;;;;0.50;0.30;;;33.40;60.70;;;;;;5034757;28;21047;-78
2022/08/02 09:04:22;;;;;;;7.30;0.77;;;32.70;62.80;;;;;;5035365;28;20542;-79
2022/08/02 09:06:49;;;;;;;0.70;0.50;;;33.00;63.80;;;;;;5035600;28;20494;-78
2022/08/02 09:09:16;;;;;;;0.50;0.37;;;34.30;62.10;;;;;;5034900;28;20438;-79
2022/08/02 09:11:43;;;;;;;1.53;0.90;;;34.70;61.10;;;;;;5035538;28;20536;-77
2022/08/02 09:14:12;;;;;;;0.80;0.80;;;34.70;60.20;;;;;;5035853;28;20544;-79
2022/08/02 09:16:40;;;;;;;0.50;0.40;;;34.70;59.90;;;;;;5036361;28;20468;-77
2022/08/02 09:19:18;;;;;;;2.53;1.13;;;34.40;60.40;;;;;;5034930;28;20528;-78
2022/08/02 09:21:46;;;;;;;1.17;0.70;;;34.40;60.10;;;;;;5034928;28;20923;-78
2022/08/02 09:24:17;;;;;;;1.03;0.57;;;34.10;60.90;;;;;;5034816;28;20441;-80
2022/08/02 09:26:44;;;;;;;0.50;0.40;;;34.20;60.90;;;;;;5034985;28;20469;-79
2022/08/02 09:29:12;;;;;;;0.50;0.40;;;33.30;64.10;;;;;;5034632;28;20986;-79
2022/08/02 09:31:39;;;;;;;0.60;0.50;;;33.00;67.20;;;;;;5035177;28;20605;-80
2022/08/02 09:34:07;;;;;;;0.60;0.40;;;33.50;63.00;;;;;;5035767;28;20446;-79
2022/08/02 09:36:39;;;;;;;0.50;0.30;;;33.90;63.10;;;;;;5036557;28;20540;-78
2022/08/02 09:39:08;;;;;;;0.50;0.30;;;34.50;62.50;;;;;;5035192;28;20449;-80
2022/08/02 09:41:36;;;;;;;0.60;0.50;;;35.20;60.90;;;;;;5035039;28;20438;-79
2022/08/02 09:44:05;;;;;;;0.50;0.30;;;34.80;60.30;;;;;;5035199;28;20947;-77
2022/08/02 09:46:36;;;;;;;0.60;0.50;;;34.30;64.40;;;;;;5035103;28;20457;-80
2022/08/02 09:49:04;;;;;;;1.23;1.10;;;34.40;61.50;;;;;;5035112;28;20426;-79
2022/08/02 09:51:34;;;;;;;0.60;0.50;;;33.60;61.80;;;;;;5034505;28;20557;-79
2022/08/02 09:54:03;;;;;;;0.50;0.40;;;33.30;62.90;;;;;;5034757;28;20446;-79
2022/08/02 09:56:42;;;;;;;0.50;0.30;;;33.00;66.00;;;;;;5034597;28;20457;-79
2022/08/02 09:59:10;;;;;;;0.60;0.40;;;33.50;64.40;;;;;;5034303;28;20430;-80
2022/08/02 10:01:38;;;;;;;0.63;0.60;;;32.90;63.90;;;;;;5034044;28;20514;-79
2022/08/02 10:04:09;;;;;;;0.50;0.40;;;32.30;64.60;;;;;;5034920;28;20616;-79
2022/08/02 10:06:37;;;;;;;0.50;0.30;;;32.30;66.50;;;;;;5034571;28;20461;-78
2022/08/02 10:09:05;;;;;;;1.70;1.60;;;33.40;66.80;;;;;;5035021;28;20442;-79
2022/08/02 10:11:33;;;;;;;0.50;0.33;;;34.30;62.30;;;;;;5034090;28;20481;-80
2022/08/02 10:14:02;;;;;;;0.87;0.87;;;34.20;62.00;;;;;;5034097;28;20940;-79
2022/08/02 10:16:29;;;;;;;0.50;0.40;;;33.70;64.10;;;;;;5036374;28;20500;-79
2022/08/02 10:18:59;;;;;;;0.50;0.30;;;33.20;64.20;;;;;;5034465;28;20528;-77
2022/08/02 10:21:29;;;;;;;0.60;0.47;;;32.80;64.20;;;;;;5034170;28;21066;-79
2022/08/02 10:24:04;;;;;;;1.03;0.80;;;32.50;65.30;;;;;;5034679;28;20811;-79
2022/08/02 10:26:32;;;;;;;0.60;0.50;;;32.50;64.80;;;;;;5034062;28;20551;-78
2022/08/02 10:28:59;;;;;;;0.60;0.43;;;32.50;65.20;;;;;;5034557;28;20545;-79
2022/08/02 10:31:32;;;;;;;1.13;1.13;;;31.70;66.40;;;;;;5033473;28;20894;-78
2022/08/02 10:34:03;;;;;;;1.30;1.20;;;31.10;69.20;;;;;;5033597;28;20442;-79
2022/08/02 10:36:33;;;;;;;0.70;0.50;;;31.70;69.90;;;;;;5034325;28;20565;-79
2022/08/02 10:39:01;;;;;;;0.50;0.40;;;31.90;67.40;;;;;;5033478;28;20465;-79
2022/08/02 10:41:43;;;;;;;0.60;0.40;;;32.10;69.70;;;;;;5033829;28;20477;-79
2022/08/02 10:44:19;;;;;;;1.33;0.50;;;32.80;65.70;;;;;;5034296;28;20540;-79
2022/08/02 10:46:46;;;;;;;3.13;1.73;;;32.20;66.60;;;;;;5034279;28;20465;-79
2022/08/02 10:49:17;;;;;;;0.50;0.40;;;32.10;66.50;;;;;;5033975;28;20528;-78
2022/08/02 10:52:05;;;;;;;0.50;0.40;;;31.60;68.20;;;;;;5032987;28;20565;-76
2022/08/02 10:54:35;;;;;;;2.43;0.87;;;30.70;69.60;;;;;;5033326;28;20438;-78
2022/08/02 10:57:02;;;;;;;0.50;0.40;;;30.30;70.70;;;;;;5033123;28;20996;-79
2022/08/02 10:59:31;;;;;;;4.83;1.50;;;30.60;72.80;;;;;;5033966;28;20800;-78
2022/08/02 11:02:03;;;;;;;0.50;0.30;;;30.60;70.30;;;;;;5032806;28;20528;-78
2022/08/02 11:04:53;;;;;;;12.57;1.13;;;30.10;72.10;;;;;;5033300;28;20457;-78
2022/08/02 11:07:22;;;;;;;0.50;0.30;;;29.70;72.60;;;;;;5032622;28;20450;-79
2022/08/02 11:09:50;;;;;;;0.50;0.30;;;29.20;73.90;;;;;;5033768;28;20485;-78
2022/08/02 11:12:18;;;;;;;0.50;0.40;;;29.80;76.10;;;;;;5032877;28;20441;-78
2022/08/02 11:14:57;;;;;;;0.50;0.40;;;30.40;71.00;;;;;;5032265;28;20537;-77
2022/08/02 11:17:27;;;;;;;0.50;0.40;;;31.40;67.90;;;;;;5034081;28;20489;-79
2022/08/02 11:20:18;;;;;;;0.50;0.30;;;31.90;66.40;;;;;;5034039;28;20441;-78
2022/08/02 11:22:46;;;;;;;0.60;0.40;;;32.80;66.10;;;;;;5033439;28;20581;-77
2022/08/02 11:25:32;;;;;;;0.53;0.40;;;33.20;64.50;;;;;;5033838;28;20513;-78
2022/08/02 11:28:07;;;;;;;0.50;0.30;;;33.50;62.80;;;;;;5033054;28;20895;-79
2022/08/02 11:30:34;;;;;;;0.50;0.37;;;33.30;62.60;;;;;;5033338;28;20796;-79
2022/08/02 11:33:01;;;;;;;0.50;0.37;;;33.50;63.40;;;;;;5033067;28;20434;-78
2022/08/02 11:35:34;;;;;;;0.50;0.30;;;34.10;61.30;;;;;;5033244;28;20533;-79
2022/08/02 11:38:15;;;;;;;1.20;1.10;;;34.10;62.30;;;;;;5033800;28;20429;-80
2022/08/02 11:40:43;;;;;;;0.50;0.40;;;33.40;60.20;;;;;;5032631;28;20426;-79
2022/08/02 11:43:21;;;;;;;0.53;0.40;;;33.00;61.50;;;;;;5032835;28;20449;-78
2022/08/02 11:45:49;;;;;;;0.50;0.30;;;32.50;62.70;;;;;;5033367;28;20962;-78
2022/08/02 11:48:30;;;;;;;0.50;0.30;;;32.30;61.80;;;;;;5033037;28;20438;-80
2022/08/02 11:51:09;;;;;;;0.63;0.60;;;32.50;64.30;;;;;;5032815;28;20796;-78
2022/08/02 11:53:43;;;;;;;0.50;0.40;;;32.60;62.20;;;;;;5032975;28;20440;-79
2022/08/02 11:56:10;;;;;;;0.50;0.40;;;32.80;63.70;;;;;;5033290;28;20536;-79
2022/08/02 11:58:38;;;;;;;0.60;0.43;;;33.20;63.90;;;;;;5032886;28;20521;-78
2022/08/02 12:01:05;;;;;;;0.50;0.50;;;33.20;61.00;;;;;;5033043;28;21042;-78
2022/08/02 12:03:37;;;;;;;0.50;0.50;;;33.20;59.90;;;;;;5032221;28;20444;-79
2022/08/02 12:06:04;;;;;;;1.00;0.80;;;33.20;62.30;;;;;;5032607;28;20524;-80
2022/08/02 12:08:33;;;;;;;5.93;0.83;;;32.50;60.80;;;;;;5033102;28;20448;-78
2022/08/02 12:11:01;;;;;;;0.70;0.70;;;32.00;64.20;;;;;;5033611;28;20469;-81
2022/08/02 12:13:28;;;;;;;0.50;0.30;;;31.70;63.80;;;;;;5032756;28;20524;-80
2022/08/02 12:19:17;;;;;;;0.50;0.30;;;31.10;66.10;;;;;;5031634;28;20492;-77
2022/08/02 12:21:33;;;;;;;0.50;0.30;;;30.70;65.20;;;;;;5031990;28;20413;-78
2022/08/02 12:24:01;;;;;;;0.50;0.37;;;31.00;65.90;;;;;;5031689;28;20536;-78
2022/08/02 12:26:28;;;;;;;1.40;1.30;;;31.10;64.80;;;;;;5031326;28;20830;-79
2022/08/02 12:28:57;;;;;;;0.63;0.63;;;31.20;65.60;;;;;;5031537;28;20923;-77
2022/08/02 12:31:39;;;;;;;0.83;0.83;;;30.90;64.90;;;;;;5031431;28;20480;-79
2022/08/02 12:34:15;;;;;;;0.50;0.30;;;31.60;64.00;;;;;;5032620;28;20493;-79
2022/08/02 12:36:44;;;;;;;1.13;0.93;;;32.30;61.80;;;;;;5031790;28;21052;-79
2022/08/02 12:39:14;;;;;;;0.50;0.30;;;33.20;60.20;;;;;;5032097;28;20544;-79
2022/08/02 12:41:41;;;;;;;0.50;0.40;;;33.50;60.70;;;;;;5031784;28;20449;-76
2022/08/02 12:44:16;;;;;;;0.50;0.30;;;33.60;59.60;;;;;;5032375;28;20487;-79
2022/08/02 12:46:43;;;;;;;1.77;1.13;;;33.80;59.90;;;;;;5032316;28;20460;-78
2022/08/02 12:49:16;;;;;;;0.53;0.37;;;33.10;58.70;;;;;;5031876;28;20465;-79
2022/08/02 12:51:43;;;;;;;0.50;0.40;;;32.70;60.90;;;;;;5031436;28;21008;-75
2022/08/02 12:54:16;;;;;;;0.50;0.30;;;33.10;61.60;;;;;;5033166;28;20496;-79
2022/08/02 12:56:43;;;;;;;0.50;0.30;;;33.40;61.00;;;;;;5032348;28;20473;-80
2022/08/02 12:59:10;;;;;;;4.23;0.90;;;33.60;59.20;;;;;;5032240;28;20504;-80
2022/08/02 13:01:37;;;;;;;0.60;0.50;;;33.00;59.00;;;;;;5031634;28;20470;-79